Time;durP1;ratioP1;P1;durP2;ratioP2;P2;SDS_P1;SDS_P2;PMS_P1;PMS_P2;Temp;Humidity;BMP_temperature;BMP_pressure;BME280_temperature;BME280_humidity;BME280_pressure;Samples;Min_cycle;Max_cycle;Signal;HPM_P1;HPM_P2
2021/06/21 00:02:17;;;;;;;2.40;1.80;;;17.70;99.90;;;;;;5071606;28;20739;-79
2021/06/21 00:04:43;;;;;;;1.77;1.77;;;17.70;99.90;;;;;;5063697;28;20178;-79
2021/06/21 00:07:08;;;;;;;2.87;1.80;;;17.70;99.90;;;;;;5070685;28;20427;-79
2021/06/21 00:09:34;;;;;;;2.07;1.60;;;17.60;99.90;;;;;;5071305;28;20208;-79
2021/06/21 00:12:01;;;;;;;6.33;2.57;;;17.60;99.90;;;;;;5072634;28;20315;-79
2021/06/21 00:14:27;;;;;;;2.40;1.90;;;17.60;99.90;;;;;;5082278;28;20214;-79
2021/06/21 00:16:52;;;;;;;4.97;2.33;;;17.60;99.90;;;;;;5093401;28;20997;-79
2021/06/21 00:19:18;;;;;;;4.63;2.20;;;17.50;99.90;;;;;;5091890;28;20491;-79
2021/06/21 00:21:44;;;;;;;2.90;1.97;;;17.50;99.90;;;;;;5090484;28;20191;-79
2021/06/21 00:24:10;;;;;;;2.40;1.60;;;17.50;99.90;;;;;;5091211;28;20180;-79
2021/06/21 00:26:35;;;;;;;2.00;1.80;;;17.50;99.90;;;;;;5091500;28;20190;-79
2021/06/21 00:29:01;;;;;;;1.97;1.63;;;17.60;99.90;;;;;;5093542;28;20534;-79
2021/06/21 00:31:27;;;;;;;3.43;1.90;;;17.50;99.90;;;;;;5089896;28;20228;-79
2021/06/21 00:33:52;;;;;;;2.23;1.57;;;17.40;99.90;;;;;;5092593;28;20179;-79
2021/06/21 00:36:18;;;;;;;2.80;1.60;;;17.40;99.90;;;;;;5085095;28;20807;-79
2021/06/21 00:38:44;;;;;;;1.83;1.73;;;17.40;99.90;;;;;;5092158;28;20179;-79
2021/06/21 00:41:09;;;;;;;2.63;2.43;;;17.40;99.90;;;;;;5089095;28;20176;-79
2021/06/21 00:43:35;;;;;;;3.13;2.17;;;17.40;99.90;;;;;;5091901;28;20204;-79
2021/06/21 00:46:01;;;;;;;3.40;3.10;;;17.40;99.90;;;;;;5091250;28;20176;-79
2021/06/21 00:48:27;;;;;;;4.10;2.13;;;17.30;99.90;;;;;;5089538;28;20179;-79
2021/06/21 00:50:52;;;;;;;5.53;1.90;;;17.30;99.90;;;;;;5089554;28;20457;-79
2021/06/21 00:53:20;;;;;;;2.00;1.80;;;17.30;99.90;;;;;;5091085;28;20214;-79
2021/06/21 00:55:46;;;;;;;2.07;1.80;;;17.30;99.90;;;;;;5090568;28;20172;-79
2021/06/21 00:58:12;;;;;;;3.63;2.40;;;17.30;99.90;;;;;;5088987;28;20413;-79
2021/06/21 01:00:38;;;;;;;2.90;2.23;;;17.30;99.90;;;;;;5086631;28;20452;-79
2021/06/21 01:03:05;;;;;;;2.20;2.07;;;17.30;99.90;;;;;;5090036;28;20890;-79
2021/06/21 01:05:34;;;;;;;2.70;1.83;;;17.30;99.90;;;;;;5088975;28;20232;-79
2021/06/21 01:08:01;;;;;;;2.30;2.17;;;17.20;99.90;;;;;;5089315;28;20434;-79
2021/06/21 01:10:29;;;;;;;2.50;2.13;;;17.30;99.90;;;;;;5089301;28;20987;-79
2021/06/21 01:13:06;;;;;;;2.77;2.57;;;17.20;99.90;;;;;;5088703;28;20798;-79
2021/06/21 01:15:39;;;;;;;2.53;2.33;;;17.20;99.90;;;;;;5092044;28;20432;-79
2021/06/21 01:18:22;;;;;;;2.47;2.37;;;17.10;99.90;;;;;;5089530;28;20422;-79
2021/06/21 01:21:14;;;;;;;3.00;2.33;;;17.10;99.90;;;;;;5087824;28;20438;-79
2021/06/21 01:24:05;;;;;;;4.10;2.33;;;17.10;99.90;;;;;;5090041;28;20751;-79
2021/06/21 01:26:54;;;;;;;2.40;2.30;;;17.30;99.90;;;;;;5090526;28;20414;-79
2021/06/21 01:29:58;;;;;;;2.27;2.17;;;17.30;99.90;;;;;;5089957;28;20465;-79
2021/06/21 01:32:58;;;;;;;2.97;2.50;;;17.40;99.90;;;;;;5043757;28;21324;-79
2021/06/21 01:35:40;;;;;;;2.30;2.10;;;17.40;99.90;;;;;;5088741;28;20445;-79
2021/06/21 01:38:11;;;;;;;2.70;2.60;;;17.40;99.90;;;;;;5091821;28;20466;-79
2021/06/21 01:40:46;;;;;;;2.47;2.27;;;17.30;99.90;;;;;;5082500;28;20985;-79
2021/06/21 01:43:16;;;;;;;3.17;2.13;;;17.20;99.90;;;;;;5087207;28;20422;-79
2021/06/21 01:45:43;;;;;;;2.50;2.30;;;17.20;99.90;;;;;;5089867;28;20502;-79
2021/06/21 01:48:11;;;;;;;3.03;2.67;;;17.20;99.90;;;;;;5086275;28;20430;-80
2021/06/21 01:50:38;;;;;;;4.10;2.70;;;17.30;99.90;;;;;;5088634;28;20457;-79
2021/06/21 01:53:13;;;;;;;3.40;2.93;;;17.30;99.90;;;;;;5090877;28;20437;-79
2021/06/21 01:55:44;;;;;;;5.53;2.90;;;17.20;99.90;;;;;;5092462;28;20777;-79
2021/06/21 01:58:11;;;;;;;4.40;3.00;;;17.10;99.90;;;;;;5086007;28;20496;-79
2021/06/21 02:00:39;;;;;;;4.10;2.87;;;17.10;99.90;;;;;;5089726;28;20425;-79
2021/06/21 02:03:06;;;;;;;3.40;3.03;;;17.10;99.90;;;;;;5087946;28;20760;-79
2021/06/21 02:05:34;;;;;;;4.70;3.33;;;17.10;99.90;;;;;;5086848;28;20980;-79
2021/06/21 02:08:00;;;;;;;4.57;3.70;;;17.10;99.90;;;;;;5089916;28;20432;-79
2021/06/21 02:10:27;;;;;;;5.57;3.13;;;17.10;99.90;;;;;;5089727;28;21023;-79
2021/06/21 02:12:55;;;;;;;3.87;3.30;;;17.00;99.90;;;;;;5105524;28;20582;-79
2021/06/21 02:15:24;;;;;;;3.53;3.33;;;17.00;99.90;;;;;;5084898;28;20426;-79
2021/06/21 02:17:52;;;;;;;3.97;3.67;;;17.10;99.90;;;;;;5087539;28;20526;-79
2021/06/21 02:20:19;;;;;;;3.83;3.53;;;17.00;99.90;;;;;;5081455;28;20422;-79
2021/06/21 02:22:46;;;;;;;4.30;3.27;;;17.00;99.90;;;;;;5090572;28;21402;-79
2021/06/21 02:25:12;;;;;;;3.57;3.03;;;17.00;99.90;;;;;;5089132;28;20429;-79
2021/06/21 02:27:39;;;;;;;8.07;3.77;;;17.10;99.90;;;;;;5084700;28;20435;-79
2021/06/21 02:30:10;;;;;;;4.33;3.50;;;17.20;99.90;;;;;;5085938;28;20465;-79
2021/06/21 02:32:37;;;;;;;3.70;3.00;;;17.10;99.90;;;;;;5087747;28;20414;-79
2021/06/21 02:35:05;;;;;;;4.10;3.77;;;17.10;99.90;;;;;;5089429;28;20453;-79
2021/06/21 02:37:32;;;;;;;9.00;4.47;;;17.10;99.90;;;;;;5088372;28;20622;-79
2021/06/21 02:39:58;;;;;;;5.50;3.70;;;16.90;99.90;;;;;;5089549;28;20758;-79
2021/06/21 02:42:23;;;;;;;3.87;3.50;;;16.80;99.90;;;;;;5088653;28;20438;-79
2021/06/21 02:44:49;;;;;;;4.13;3.63;;;16.80;99.90;;;;;;5090819;28;20180;-79
2021/06/21 02:47:15;;;;;;;8.37;3.90;;;16.70;99.90;;;;;;5089641;28;20568;-79
2021/06/21 02:49:41;;;;;;;7.87;4.10;;;16.80;99.90;;;;;;5092607;28;20203;-79
2021/06/21 02:52:28;;;;;;;4.90;3.70;;;16.80;99.90;;;;;;5091592;28;20428;-79
2021/06/21 02:55:12;;;;;;;6.03;3.67;;;16.80;99.90;;;;;;5095317;28;20525;-79
2021/06/21 02:58:07;;;;;;;5.07;3.67;;;16.80;99.90;;;;;;5091932;28;20425;-80
2021/06/21 03:00:34;;;;;;;4.93;3.77;;;16.80;99.90;;;;;;5091569;28;20434;-79
2021/06/21 03:03:01;;;;;;;7.60;4.60;;;16.70;99.90;;;;;;5086009;28;20465;-80
2021/06/21 03:05:29;;;;;;;9.47;3.80;;;16.60;99.90;;;;;;5089588;28;20444;-80
2021/06/21 03:07:56;;;;;;;4.37;3.97;;;16.60;99.90;;;;;;5084557;28;20433;-79
2021/06/21 03:10:23;;;;;;;4.60;4.20;;;16.60;99.90;;;;;;5081579;28;20449;-79
2021/06/21 03:12:49;;;;;;;5.20;3.77;;;16.60;99.90;;;;;;5085991;28;20437;-79
2021/06/21 03:15:19;;;;;;;4.63;4.33;;;16.60;99.90;;;;;;5090035;28;20540;-79
2021/06/21 03:17:47;;;;;;;4.70;4.30;;;16.50;99.90;;;;;;5093278;28;20429;-79
2021/06/21 03:20:13;;;;;;;5.40;4.50;;;16.40;99.90;;;;;;5092788;28;20572;-80
2021/06/21 03:22:39;;;;;;;6.30;5.27;;;16.40;99.90;;;;;;5090431;28;21001;-80
2021/06/21 03:25:06;;;;;;;7.00;5.43;;;16.50;99.90;;;;;;5084446;28;20434;-79
2021/06/21 03:27:35;;;;;;;7.97;5.17;;;16.50;99.90;;;;;;5090019;28;20525;-80
2021/06/21 03:30:09;;;;;;;10.60;5.53;;;16.50;99.90;;;;;;5091694;28;20464;-79
2021/06/21 03:32:37;;;;;;;9.17;5.97;;;16.40;99.90;;;;;;5084985;28;20474;-80
2021/06/21 03:35:07;;;;;;;7.73;6.23;;;16.30;99.90;;;;;;5088001;28;20448;-80
2021/06/21 03:37:32;;;;;;;9.10;5.80;;;16.10;99.90;;;;;;5086162;28;20487;-80
2021/06/21 03:39:58;;;;;;;7.23;6.57;;;16.10;99.90;;;;;;5091171;28;20431;-79
2021/06/21 03:42:25;;;;;;;7.17;6.37;;;16.10;99.90;;;;;;5090148;28;20570;-79
2021/06/21 03:44:53;;;;;;;6.83;6.20;;;16.00;99.90;;;;;;5088861;28;20188;-79
2021/06/21 03:47:19;;;;;;;7.33;6.60;;;16.10;99.90;;;;;;5085548;28;20824;-79
2021/06/21 03:49:47;;;;;;;8.20;7.40;;;16.00;99.90;;;;;;5091138;28;20469;-79
2021/06/21 03:52:13;;;;;;;7.77;5.70;;;16.20;99.90;;;;;;5088629;28;20233;-79
2021/06/21 03:54:39;;;;;;;4.93;4.43;;;16.20;99.90;;;;;;5092543;28;20422;-79
2021/06/21 03:57:06;;;;;;;10.00;7.07;;;16.20;99.90;;;;;;5093037;28;20917;-79
2021/06/21 03:59:32;;;;;;;6.07;4.97;;;16.20;99.90;;;;;;5090780;28;20188;-79
2021/06/21 04:01:58;;;;;;;7.40;6.20;;;16.20;99.90;;;;;;5086496;28;20452;-79
2021/06/21 04:04:24;;;;;;;5.83;5.33;;;16.00;99.90;;;;;;5088459;28;20633;-79
2021/06/21 04:06:50;;;;;;;6.27;5.67;;;15.90;99.90;;;;;;5090167;28;20186;-79
2021/06/21 04:09:16;;;;;;;5.70;5.30;;;15.90;99.90;;;;;;5087538;28;20989;-79
2021/06/21 04:11:42;;;;;;;6.20;4.80;;;15.90;99.90;;;;;;5089185;28;20180;-79
2021/06/21 04:14:07;;;;;;;5.37;4.97;;;16.00;99.90;;;;;;5085058;28;20271;-79
2021/06/21 04:16:33;;;;;;;6.10;5.63;;;16.10;99.90;;;;;;5086214;28;20579;-79
2021/06/21 04:18:59;;;;;;;5.60;5.20;;;16.10;99.90;;;;;;5090337;28;20204;-79
2021/06/21 04:21:25;;;;;;;6.63;5.90;;;16.10;99.90;;;;;;5086513;28;20182;-79
2021/06/21 04:23:51;;;;;;;5.47;5.00;;;16.10;99.90;;;;;;5082994;28;20509;-79
2021/06/21 04:26:17;;;;;;;5.93;5.33;;;16.10;99.90;;;;;;5090874;28;20188;-79
2021/06/21 04:28:43;;;;;;;5.00;4.50;;;16.00;99.90;;;;;;5089535;28;20426;-79
2021/06/21 04:31:09;;;;;;;5.57;5.07;;;16.00;99.90;;;;;;5084141;28;20203;-79
2021/06/21 04:33:35;;;;;;;5.33;4.60;;;16.00;99.90;;;;;;5090304;28;20441;-79
2021/06/21 04:36:00;;;;;;;5.80;5.37;;;15.90;99.90;;;;;;5089549;28;20426;-79
2021/06/21 04:38:26;;;;;;;5.43;4.93;;;16.00;99.90;;;;;;5088829;28;20180;-79
2021/06/21 04:40:52;;;;;;;4.60;4.30;;;16.00;99.90;;;;;;5089419;28;20172;-79
2021/06/21 04:43:19;;;;;;;5.30;4.90;;;15.90;99.90;;;;;;5088854;28;20614;-79
2021/06/21 04:45:45;;;;;;;5.27;4.87;;;15.90;99.90;;;;;;5089343;28;20191;-79
2021/06/21 04:48:11;;;;;;;5.10;4.70;;;15.90;99.90;;;;;;5093322;28;20797;-79
2021/06/21 04:50:38;;;;;;;5.93;5.47;;;16.00;99.90;;;;;;5089625;28;20931;-79
2021/06/21 04:53:04;;;;;;;5.37;4.97;;;15.90;99.90;;;;;;5086294;28;20244;-79
2021/06/21 04:55:30;;;;;;;4.60;4.30;;;15.90;99.90;;;;;;5090658;28;20505;-79
2021/06/21 04:57:55;;;;;;;5.00;4.60;;;15.90;99.90;;;;;;5090326;28;20176;-79
2021/06/21 05:00:24;;;;;;;6.70;5.40;;;15.90;99.90;;;;;;5088954;28;20187;-79
2021/06/21 05:02:50;;;;;;;5.07;4.67;;;16.00;99.90;;;;;;5087785;28;20584;-79
2021/06/21 05:05:17;;;;;;;5.77;5.30;;;15.90;99.90;;;;;;5089444;28;20441;-79
2021/06/21 05:07:50;;;;;;;5.40;4.90;;;15.90;99.90;;;;;;5089444;28;20426;-79
2021/06/21 05:10:17;;;;;;;5.80;5.30;;;15.90;99.90;;;;;;5095957;28;20564;-79
2021/06/21 05:12:44;;;;;;;4.73;4.40;;;15.80;99.90;;;;;;5090554;28;20523;-78
2021/06/21 05:15:10;;;;;;;4.40;4.00;;;15.90;99.90;;;;;;5087436;28;20510;-79
2021/06/21 05:17:36;;;;;;;4.90;4.50;;;15.90;99.90;;;;;;5089627;28;20427;-79
2021/06/21 05:20:04;;;;;;;4.87;4.47;;;15.90;99.90;;;;;;5082977;28;20425;-79
2021/06/21 05:22:30;;;;;;;4.53;4.23;;;15.90;99.90;;;;;;5090694;28;20236;-79
2021/06/21 05:24:57;;;;;;;6.90;4.30;;;16.10;99.90;;;;;;5083770;28;20574;-79
2021/06/21 05:27:23;;;;;;;4.80;4.40;;;16.00;99.90;;;;;;5088079;28;20191;-79
2021/06/21 05:29:49;;;;;;;4.50;3.80;;;16.00;99.90;;;;;;5088826;28;20531;-79
2021/06/21 05:32:15;;;;;;;4.00;3.73;;;16.10;99.90;;;;;;5089230;28;20186;-78
2021/06/21 05:34:40;;;;;;;3.80;3.50;;;16.20;99.90;;;;;;5090401;28;20198;-79
2021/06/21 05:37:06;;;;;;;3.57;3.30;;;16.10;99.90;;;;;;5093204;28;20437;-79
2021/06/21 05:39:32;;;;;;;3.00;2.80;;;16.20;99.90;;;;;;5092091;28;20833;-78
2021/06/21 05:41:58;;;;;;;4.60;3.57;;;16.10;99.90;;;;;;5088262;28;20188;-79
2021/06/21 05:44:23;;;;;;;3.53;3.20;;;16.20;99.90;;;;;;5090729;28;20191;-78
2021/06/21 05:46:49;;;;;;;3.03;2.83;;;16.10;99.90;;;;;;5090213;28;20766;-79
2021/06/21 05:49:15;;;;;;;4.70;3.60;;;16.10;99.90;;;;;;5090006;28;20215;-79
2021/06/21 05:51:41;;;;;;;2.43;2.23;;;16.10;99.90;;;;;;5082339;28;20267;-79
2021/06/21 05:54:06;;;;;;;2.73;2.53;;;16.20;99.90;;;;;;5089007;28;20262;-79
2021/06/21 05:56:32;;;;;;;2.83;2.70;;;16.20;99.90;;;;;;5088314;28;20184;-79
2021/06/21 05:59:00;;;;;;;3.00;2.90;;;16.20;99.90;;;;;;5086439;28;20293;-79
2021/06/21 06:01:28;;;;;;;3.60;3.40;;;16.30;99.90;;;;;;5087979;28;20176;-79
2021/06/21 06:03:53;;;;;;;2.83;2.73;;;16.30;99.90;;;;;;5091224;28;20827;-79
2021/06/21 06:06:19;;;;;;;2.70;2.60;;;16.30;99.90;;;;;;5091051;28;20458;-79
2021/06/21 06:08:45;;;;;;;3.63;3.20;;;16.20;99.90;;;;;;5090802;28;20176;-79
2021/06/21 06:11:10;;;;;;;2.97;2.87;;;16.20;99.90;;;;;;5088495;28;20217;-79
2021/06/21 06:13:36;;;;;;;3.40;3.20;;;16.20;99.90;;;;;;5082005;28;20201;-79
2021/06/21 06:16:03;;;;;;;4.20;3.90;;;16.20;99.90;;;;;;5087420;28;20179;-79
2021/06/21 06:18:28;;;;;;;4.20;3.90;;;16.20;99.90;;;;;;5085721;28;20440;-79
2021/06/21 06:20:54;;;;;;;3.67;3.47;;;16.20;99.90;;;;;;5088709;28;20518;-79
2021/06/21 06:23:20;;;;;;;3.50;3.30;;;16.10;99.90;;;;;;5092963;28;20187;-79
2021/06/21 06:25:45;;;;;;;2.90;2.80;;;16.20;99.90;;;;;;5089999;28;20207;-79
2021/06/21 06:28:11;;;;;;;2.70;2.60;;;16.20;99.90;;;;;;5085816;28;20200;-78
2021/06/21 06:30:37;;;;;;;2.93;2.77;;;16.30;99.90;;;;;;5083661;28;20199;-79
2021/06/21 06:33:03;;;;;;;2.73;2.47;;;16.30;99.90;;;;;;5092533;28;20167;-79
2021/06/21 06:35:29;;;;;;;2.27;2.17;;;16.30;99.90;;;;;;5091770;28;20202;-79
2021/06/21 06:37:54;;;;;;;3.17;2.50;;;16.20;99.90;;;;;;5091393;28;20442;-79
2021/06/21 06:40:20;;;;;;;2.50;2.40;;;16.30;99.90;;;;;;5094009;28;20523;-80
2021/06/21 06:42:47;;;;;;;3.17;2.60;;;16.40;99.90;;;;;;5087517;28;20194;-89
2021/06/21 06:45:13;;;;;;;2.47;2.37;;;16.30;99.90;;;;;;5091739;28;20179;-80
2021/06/21 06:47:39;;;;;;;2.40;2.20;;;16.30;99.90;;;;;;5095392;28;20429;-80
2021/06/21 06:50:06;;;;;;;2.50;2.40;;;16.30;99.90;;;;;;5105757;28;21012;-81
2021/06/21 06:52:33;;;;;;;2.30;2.20;;;16.20;99.90;;;;;;5110299;28;20194;-82
2021/06/21 06:57:37;;;;;;;3.00;2.70;;;16.30;99.90;;;;;;5105233;28;20414;-82
2021/06/21 07:00:14;;;;;;;2.60;2.50;;;16.20;99.90;;;;;;5107743;28;20449;-83
2021/06/21 07:02:43;;;;;;;2.63;2.53;;;16.30;99.90;;;;;;5121910;28;20442;-82
2021/06/21 07:05:10;;;;;;;2.43;2.23;;;16.30;99.90;;;;;;5110991;28;20417;-82
2021/06/21 07:07:36;;;;;;;2.87;2.63;;;16.40;99.90;;;;;;5113359;28;20417;-82
2021/06/21 07:10:01;;;;;;;2.40;2.30;;;16.40;99.90;;;;;;5107851;28;20552;-82
2021/06/21 07:12:27;;;;;;;2.40;2.30;;;16.40;99.90;;;;;;5107690;28;20260;-82
2021/06/21 07:14:53;;;;;;;2.20;2.10;;;16.40;99.90;;;;;;5108736;28;20661;-82
2021/06/21 07:17:18;;;;;;;2.27;2.17;;;16.50;99.90;;;;;;5111098;28;20176;-83
2021/06/21 07:19:44;;;;;;;2.43;2.23;;;16.50;99.90;;;;;;5106579;28;20194;-83
2021/06/21 07:22:10;;;;;;;2.03;1.90;;;16.60;99.90;;;;;;5113067;28;20184;-83
2021/06/21 07:24:36;;;;;;;1.90;1.80;;;16.60;99.90;;;;;;5113359;28;20180;-82
2021/06/21 07:27:03;;;;;;;2.53;2.10;;;16.60;99.90;;;;;;5104040;28;20791;-82
2021/06/21 07:29:30;;;;;;;1.60;1.50;;;16.70;99.90;;;;;;5102431;28;20203;-82
2021/06/21 07:31:55;;;;;;;2.03;1.93;;;16.70;99.90;;;;;;5097959;28;20472;-82
2021/06/21 07:34:21;;;;;;;1.73;1.63;;;16.80;99.90;;;;;;5101230;28;20848;-82
2021/06/21 07:36:47;;;;;;;1.37;1.37;;;16.90;99.90;;;;;;5106045;28;20180;-82
2021/06/21 07:39:12;;;;;;;2.10;1.70;;;17.00;99.90;;;;;;5107096;28;20233;-82
2021/06/21 07:41:40;;;;;;;1.80;1.70;;;17.10;99.90;;;;;;5104241;28;20180;-82
2021/06/21 07:44:05;;;;;;;1.20;1.20;;;17.10;99.90;;;;;;5103599;28;20176;-82
2021/06/21 07:46:32;;;;;;;1.30;1.30;;;17.10;99.90;;;;;;5103128;28;20449;-81
2021/06/21 07:48:58;;;;;;;2.30;1.40;;;17.20;99.90;;;;;;5103588;28;20176;-81
2021/06/21 07:51:25;;;;;;;1.10;1.10;;;17.10;99.90;;;;;;5103106;28;20425;-81
2021/06/21 07:53:52;;;;;;;1.20;1.10;;;17.10;99.90;;;;;;5104079;28;20887;-81
2021/06/21 07:56:19;;;;;;;1.50;1.40;;;17.30;99.90;;;;;;5106757;28;20179;-81
2021/06/21 07:58:45;;;;;;;0.70;0.70;;;17.30;99.90;;;;;;5101172;28;20429;-81
2021/06/21 08:01:13;;;;;;;1.40;1.30;;;17.30;99.90;;;;;;5106251;28;20508;-81
2021/06/21 08:03:40;;;;;;;1.53;1.20;;;17.30;99.90;;;;;;5104220;28;20191;-81
2021/06/21 08:06:10;;;;;;;0.80;0.80;;;17.30;99.90;;;;;;5103755;28;20453;-82
2021/06/21 08:08:36;;;;;;;0.97;0.80;;;17.30;99.90;;;;;;5103304;28;20422;-81
2021/06/21 08:11:02;;;;;;;0.80;0.80;;;17.30;99.90;;;;;;5083187;28;20754;-80
2021/06/21 08:13:28;;;;;;;1.00;0.90;;;17.20;99.90;;;;;;5088409;28;20746;-80
2021/06/21 08:15:54;;;;;;;1.83;1.10;;;17.20;99.90;;;;;;5088354;28;20511;-80
2021/06/21 08:18:20;;;;;;;0.90;0.90;;;17.20;99.90;;;;;;5091044;28;20199;-79
2021/06/21 08:20:45;;;;;;;0.80;0.80;;;17.30;99.90;;;;;;5089713;28;20237;-80
2021/06/21 08:23:13;;;;;;;0.80;0.80;;;17.30;99.90;;;;;;5106899;28;20278;-80
2021/06/21 08:25:39;;;;;;;0.70;0.70;;;17.40;99.90;;;;;;5088863;28;20443;-80
2021/06/21 08:28:05;;;;;;;2.63;0.80;;;17.60;99.90;;;;;;5088852;28;20432;-80
2021/06/21 08:30:31;;;;;;;1.07;0.70;;;17.80;99.90;;;;;;5089646;28;20450;-80
2021/06/21 08:32:58;;;;;;;0.90;0.90;;;17.90;99.90;;;;;;5087638;28;20647;-80
2021/06/21 08:35:25;;;;;;;0.70;0.70;;;18.00;99.90;;;;;;5091763;28;20434;-80
2021/06/21 08:37:51;;;;;;;0.60;0.60;;;18.00;99.90;;;;;;5090722;28;20445;-80
2021/06/21 08:40:19;;;;;;;0.60;0.60;;;17.90;99.90;;;;;;5085135;28;20429;-80
2021/06/21 08:42:44;;;;;;;0.60;0.60;;;17.90;99.90;;;;;;5087801;28;20469;-80
2021/06/21 08:45:11;;;;;;;0.60;0.60;;;17.80;99.90;;;;;;5089707;28;20484;-80
2021/06/21 08:47:38;;;;;;;0.60;0.60;;;17.80;99.90;;;;;;5087384;28;20184;-80
2021/06/21 08:50:07;;;;;;;0.73;0.73;;;17.70;99.90;;;;;;5089815;28;20491;-80
2021/06/21 08:52:33;;;;;;;2.30;0.70;;;17.80;99.90;;;;;;5089244;28;20418;-80
2021/06/21 08:55:05;;;;;;;0.70;0.70;;;17.70;99.90;;;;;;5086369;28;21051;-80
2021/06/21 08:57:33;;;;;;;3.40;0.60;;;17.80;99.90;;;;;;5085120;28;20414;-80
2021/06/21 08:59:59;;;;;;;0.77;0.77;;;18.10;99.90;;;;;;5087726;28;20742;-80
2021/06/21 09:02:27;;;;;;;0.70;0.70;;;18.20;99.90;;;;;;5089747;28;20426;-79
2021/06/21 09:04:54;;;;;;;0.83;0.83;;;18.50;99.90;;;;;;5084650;28;20455;-80
2021/06/21 09:07:21;;;;;;;0.70;0.63;;;18.70;99.90;;;;;;5088310;28;20426;-80
2021/06/21 09:09:48;;;;;;;0.90;0.90;;;18.70;99.90;;;;;;5085114;28;20485;-79
2021/06/21 09:12:20;;;;;;;1.10;1.10;;;18.70;99.90;;;;;;5083955;28;20444;-80
2021/06/21 09:14:47;;;;;;;0.80;0.80;;;18.50;99.90;;;;;;5087192;28;20531;-79
2021/06/21 09:17:13;;;;;;;1.07;0.87;;;18.40;99.90;;;;;;5084122;28;20422;-80
2021/06/21 09:19:58;;;;;;;0.97;0.97;;;18.40;99.90;;;;;;5087843;28;20759;-80
2021/06/21 09:22:33;;;;;;;1.43;1.43;;;18.30;99.90;;;;;;5087406;28;20190;-80
2021/06/21 09:25:07;;;;;;;1.20;1.10;;;18.30;99.90;;;;;;5085634;28;20436;-79
2021/06/21 09:27:34;;;;;;;1.70;1.60;;;18.20;99.90;;;;;;5083078;28;20517;-80
2021/06/21 09:30:10;;;;;;;1.30;1.30;;;18.30;99.90;;;;;;5083785;28;20484;-80
2021/06/21 09:32:49;;;;;;;6.73;1.27;;;18.20;99.90;;;;;;5081985;28;20422;-80
2021/06/21 09:35:29;;;;;;;1.90;1.80;;;18.20;99.90;;;;;;5088204;28;20417;-80
2021/06/21 09:37:59;;;;;;;1.70;1.70;;;18.20;99.90;;;;;;5086851;28;20418;-80
2021/06/21 09:40:33;;;;;;;1.70;1.60;;;18.30;99.90;;;;;;5090515;28;20504;-80
2021/06/21 09:43:30;;;;;;;1.70;1.40;;;18.40;99.90;;;;;;5089644;28;20755;-80
2021/06/21 09:46:18;;;;;;;1.90;1.80;;;18.60;99.90;;;;;;5085195;28;20498;-80
2021/06/21 09:48:48;;;;;;;1.47;1.37;;;18.30;99.90;;;;;;5089895;28;20445;-80
2021/06/21 09:51:21;;;;;;;1.37;1.37;;;18.40;99.90;;;;;;5080925;28;20458;-80
2021/06/21 09:54:03;;;;;;;1.87;1.77;;;18.40;99.90;;;;;;5087934;28;20837;-80
2021/06/21 09:56:50;;;;;;;1.60;1.60;;;18.30;99.90;;;;;;5081366;28;20942;-80
2021/06/21 09:59:28;;;;;;;1.90;1.80;;;18.30;99.90;;;;;;5089790;28;20421;-80
2021/06/21 10:02:22;;;;;;;2.80;2.07;;;18.30;99.90;;;;;;5103944;28;20432;-80
2021/06/21 10:04:48;;;;;;;3.73;1.80;;;18.30;99.90;;;;;;5087245;28;20433;-80
2021/06/21 10:07:32;;;;;;;1.70;1.60;;;18.30;99.90;;;;;;5087108;28;20472;-80
2021/06/21 10:10:09;;;;;;;2.17;2.07;;;18.30;99.90;;;;;;5083736;28;20445;-80
2021/06/21 10:12:35;;;;;;;1.90;1.80;;;18.40;99.90;;;;;;5085649;28;20420;-80
2021/06/21 10:15:02;;;;;;;2.07;1.97;;;18.30;99.90;;;;;;5079432;28;20436;-80
2021/06/21 10:17:28;;;;;;;2.67;2.57;;;18.40;99.90;;;;;;5081069;28;20433;-80
2021/06/21 10:19:54;;;;;;;2.13;1.93;;;18.30;99.90;;;;;;5085139;28;20767;-80
2021/06/21 10:22:24;;;;;;;2.07;1.97;;;18.30;99.90;;;;;;5084512;28;20171;-80
2021/06/21 10:24:58;;;;;;;1.90;1.80;;;18.50;99.90;;;;;;5085185;28;20748;-81
2021/06/21 10:27:26;;;;;;;1.70;1.60;;;18.50;99.90;;;;;;5082823;28;20432;-81
2021/06/21 10:29:55;;;;;;;1.80;1.70;;;18.60;99.90;;;;;;5079599;28;20992;-80
2021/06/21 10:32:21;;;;;;;2.00;1.90;;;18.80;99.90;;;;;;5083082;28;20433;-80
2021/06/21 10:34:48;;;;;;;2.50;2.40;;;18.70;99.90;;;;;;5084867;28;20514;-81
2021/06/21 10:37:18;;;;;;;1.87;1.77;;;18.80;99.90;;;;;;5083514;28;20477;-81
2021/06/21 10:39:46;;;;;;;2.50;2.40;;;18.80;99.90;;;;;;5082119;28;20422;-81
2021/06/21 10:42:22;;;;;;;2.20;2.10;;;18.90;99.90;;;;;;5084878;28;20445;-81
2021/06/21 10:44:51;;;;;;;2.70;2.50;;;19.00;99.90;;;;;;5082949;28;20468;-80
2021/06/21 10:47:26;;;;;;;2.53;2.43;;;19.00;99.90;;;;;;5077718;28;20516;-81
2021/06/21 10:50:17;;;;;;;2.70;2.57;;;19.10;99.90;;;;;;5085327;28;20453;-81
2021/06/21 10:52:50;;;;;;;3.37;3.17;;;19.20;99.90;;;;;;5080771;28;20525;-80
2021/06/21 10:55:23;;;;;;;2.53;2.43;;;19.00;99.90;;;;;;5082604;28;20426;-80
2021/06/21 10:58:04;;;;;;;2.67;2.57;;;19.10;99.90;;;;;;5082237;28;20414;-81
2021/06/21 11:00:29;;;;;;;2.50;2.40;;;19.00;99.90;;;;;;5083805;28;21154;-81
2021/06/21 11:02:55;;;;;;;2.40;2.30;;;19.10;99.90;;;;;;5078702;28;20523;-81
2021/06/21 11:05:40;;;;;;;2.50;2.40;;;19.00;99.90;;;;;;5082356;28;20176;-81
2021/06/21 11:08:17;;;;;;;3.03;2.87;;;19.00;99.90;;;;;;5084655;28;20651;-81
2021/06/21 11:10:44;;;;;;;2.53;2.43;;;18.90;99.90;;;;;;5087704;28;20449;-81
2021/06/21 11:13:35;;;;;;;3.10;3.00;;;18.80;99.90;;;;;;5088375;28;20430;-80
2021/06/21 11:16:23;;;;;;;4.00;3.80;;;18.80;99.90;;;;;;5089488;28;20432;-81
2021/06/21 11:19:13;;;;;;;4.10;3.80;;;18.60;99.90;;;;;;5089366;28;20514;-79
2021/06/21 11:21:47;;;;;;;3.27;3.10;;;18.20;99.90;;;;;;5087569;28;20426;-79
2021/06/21 11:24:35;;;;;;;3.60;3.40;;;18.20;99.90;;;;;;5090140;28;20430;-79
2021/06/21 11:27:02;;;;;;;3.70;3.40;;;18.10;99.90;;;;;;5104797;28;21057;-79
2021/06/21 11:29:29;;;;;;;3.90;3.60;;;18.10;99.90;;;;;;5090242;28;20919;-79
2021/06/21 11:32:00;;;;;;;5.13;4.83;;;18.00;99.90;;;;;;5087066;28;20843;-80
2021/06/21 11:34:51;;;;;;;4.60;4.30;;;18.00;99.90;;;;;;5081920;28;20536;-81
2021/06/21 11:37:50;;;;;;;4.90;4.60;;;17.90;99.90;;;;;;5084271;28;20449;-80
2021/06/21 11:40:19;;;;;;;5.13;4.63;;;17.90;99.90;;;;;;5089581;28;20425;-80
2021/06/21 11:42:57;;;;;;;5.10;4.60;;;17.90;99.90;;;;;;5089643;28;20989;-80
2021/06/21 11:45:57;;;;;;;5.40;5.10;;;17.90;99.90;;;;;;5087606;28;20922;-80
2021/06/21 11:48:30;;;;;;;5.33;5.03;;;17.80;99.90;;;;;;5081310;28;20422;-80
2021/06/21 11:50:58;;;;;;;4.37;4.10;;;17.80;99.90;;;;;;5064286;28;20472;-80
2021/06/21 11:53:26;;;;;;;5.33;5.03;;;17.80;99.90;;;;;;5087127;28;20898;-80
2021/06/21 11:55:52;;;;;;;5.37;5.07;;;17.90;99.90;;;;;;5099666;28;20431;-80
2021/06/21 11:58:30;;;;;;;4.40;4.20;;;17.90;99.90;;;;;;5074288;28;20438;-80
2021/06/21 12:00:57;;;;;;;6.27;5.30;;;18.00;99.90;;;;;;5082443;28;20427;-80
2021/06/21 12:03:31;;;;;;;4.90;4.50;;;18.00;99.90;;;;;;5084658;28;20436;-80
2021/06/21 12:05:57;;;;;;;4.83;4.53;;;18.00;99.90;;;;;;5082093;28;20475;-80
2021/06/21 12:08:22;;;;;;;4.20;3.80;;;18.20;99.90;;;;;;5087667;28;20429;-80
2021/06/21 12:10:48;;;;;;;3.30;3.20;;;18.10;99.90;;;;;;5084745;28;20522;-80
2021/06/21 12:13:18;;;;;;;3.10;3.00;;;18.10;99.90;;;;;;5086460;28;20173;-80
2021/06/21 12:15:44;;;;;;;4.30;4.03;;;18.20;99.90;;;;;;5089553;28;20168;-80
2021/06/21 12:18:10;;;;;;;3.10;3.00;;;18.20;99.90;;;;;;5092782;28;20428;-80
2021/06/21 12:20:36;;;;;;;3.67;3.50;;;18.10;99.90;;;;;;5087430;28;20175;-80
2021/06/21 12:23:07;;;;;;;3.13;3.03;;;18.00;99.90;;;;;;5087762;28;20246;-80
2021/06/21 12:25:45;;;;;;;4.37;2.87;;;18.00;99.90;;;;;;5088255;28;20445;-80
2021/06/21 12:28:27;;;;;;;3.13;2.93;;;18.00;99.90;;;;;;5087558;28;20919;-80
2021/06/21 12:30:59;;;;;;;2.47;2.30;;;17.90;99.90;;;;;;5105268;27;20469;-80
2021/06/21 12:33:37;;;;;;;3.30;3.10;;;17.90;99.90;;;;;;5086933;28;20442;-80
2021/06/21 12:36:26;;;;;;;2.70;2.60;;;18.00;99.90;;;;;;5091698;28;20433;-80
2021/06/21 12:38:54;;;;;;;3.40;3.20;;;18.00;99.90;;;;;;5092565;28;20426;-80
2021/06/21 12:41:27;;;;;;;3.10;3.00;;;18.00;99.90;;;;;;5085991;28;20422;-80
2021/06/21 12:44:05;;;;;;;3.00;2.90;;;18.20;99.90;;;;;;5084887;28;20444;-80
2021/06/21 12:46:33;;;;;;;3.30;2.60;;;18.20;99.90;;;;;;5086573;28;20508;-80
2021/06/21 12:49:02;;;;;;;2.30;2.20;;;18.20;99.90;;;;;;5081409;28;20499;-80
2021/06/21 12:51:28;;;;;;;2.70;2.50;;;18.10;99.90;;;;;;5084584;28;20552;-80
2021/06/21 12:53:56;;;;;;;1.90;1.80;;;18.20;99.90;;;;;;5086014;28;20513;-80
2021/06/21 12:56:34;;;;;;;2.07;1.97;;;18.20;99.90;;;;;;5085973;28;20173;-80
2021/06/21 12:59:01;;;;;;;1.40;1.40;;;18.20;99.90;;;;;;5102846;28;20911;-80
2021/06/21 13:01:34;;;;;;;1.83;1.73;;;18.20;99.90;;;;;;5086938;28;20429;-80
2021/06/21 13:04:15;;;;;;;1.90;1.80;;;18.20;99.90;;;;;;5086177;28;20422;-80